Opotiki Weather Station Historical Data
Version 3.4b - 01-Dec-2017
Daily Summary for November 09, 2018 Units:  Both    English   Metric
« Previous Day
Next Day »
Daily Weekly Monthly Yearly Custom
  High: Low: Average:
Temperature: 75.6 °F /  24.2 °C 62.4 °F /  16.9 °C 66.6 °F /  19.2 °C
Dew Point: 63.7 °F /  17.6 °C 59.5 °F /  15.3 °C 61.2 °F /  16.2 °C
Humidity: 96% 62% 84%
Wind Speed: 6mph /  9.7km/h - 2.6mph /  4.2km/h
Wind Gust: 13mph /  20.9km/h - -
Wind- - South
Pressure: 30 in /  1015.5 hPa 29.9 in /  1011.6 hPa -
Precipitation: 0.01 in /  0.3 mm    
Historical Graphs
 
 
Tabular Data for November 09, 2018
Time Temperature Dew Point Pressure Wind Wind Speed Wind Gust Humidity Rain Rate (Hrly) Rain Day
00:02 63.5 °F /  17.5 °C 61.2 °F /  16.2 °C 30in /  1015.1hPa West 1.6mph /  2.6km/h 3.8mph /  6.1km/h 92% 0in /  0.0mm 0.0mm
00:10 63.5 °F /  17.5 °C 61.2 °F /  16.2 °C 30in /  1015.4hPa West 0.7mph /  1.1km/h 5.4mph /  8.7km/h 92% 0in /  0.0mm 0.0mm
00:14 63.5 °F /  17.5 °C 61.2 °F /  16.2 °C 30in /  1015.2hPa West 0.7mph /  1.1km/h 5.4mph /  8.7km/h 92% 0in /  0.0mm 0.0mm
00:22 63.5 °F /  17.5 °C 61.5 °F /  16.4 °C 30in /  1015.1hPa WSW 0.7mph /  1.1km/h 5.4mph /  8.7km/h 93% 0in /  0.0mm 0.0mm
00:26 63.5 °F /  17.5 °C 61.5 °F /  16.4 °C 30in /  1015.3hPa Calm   5.4mph /  8.7km/h 93% 0in /  0.0mm 0.0mm
00:34 63.5 °F /  17.5 °C 61.5 °F /  16.4 °C 30in /  1015.2hPa WNW 1.6mph /  2.6km/h 4.5mph /  7.2km/h 93% 0in /  0.0mm 0.0mm
00:38 63.5 °F /  17.5 °C 61.5 °F /  16.4 °C 30in /  1015.0hPa NW 0.7mph /  1.1km/h 4.5mph /  7.2km/h 93% 0in /  0.0mm 0.0mm
00:42 63.5 °F /  17.5 °C 61.5 °F /  16.4 °C 30in /  1015.2hPa NNW 1.6mph /  2.6km/h 5.4mph /  8.7km/h 93% 0in /  0.0mm 0.0mm
00:48 63.3 °F /  17.4 °C 61.3 °F /  16.3 °C 30in /  1015.3hPa NW 1.6mph /  2.6km/h 5.4mph /  8.7km/h 93% 0in /  0.0mm 0.0mm
00:54 63.5 °F /  17.5 °C 61.5 °F /  16.4 °C 30in /  1015.3hPa West 0.7mph /  1.1km/h 3.1mph /  5.0km/h 93% 0in /  0.0mm 0.0mm
00:58 63.5 °F /  17.5 °C 61.5 °F /  16.4 °C 30in /  1015.2hPa West 1.6mph /  2.6km/h 3.1mph /  5.0km/h 93% 0in /  0.0mm 0.0mm
01:08 63.5 °F /  17.5 °C 61.5 °F /  16.4 °C 30in /  1015.1hPa WNW 1.6mph /  2.6km/h 5.4mph /  8.7km/h 93% 0in /  0.0mm 0.0mm
01:20 63.5 °F /  17.5 °C 61.5 °F /  16.4 °C 30in /  1015.2hPa WNW 2.2mph /  3.5km/h 6.9mph /  11.1km/h 93% 0in /  0.0mm 0.0mm
01:24 63.3 °F /  17.4 °C 61.3 °F /  16.3 °C 30in /  1015.3hPa NW 1.6mph /  2.6km/h 6.9mph /  11.1km/h 93% 0in /  0.0mm 0.0mm
01:28 63.5 °F /  17.5 °C 61.5 °F /  16.4 °C 30in /  1015.1hPa WNW 0.7mph /  1.1km/h 6.9mph /  11.1km/h 93% 0in /  0.0mm 0.0mm
01:32 63.5 °F /  17.5 °C 61.5 °F /  16.4 °C 30in /  1015.1hPa WNW 3.1mph /  5.0km/h 4.5mph /  7.2km/h 93% 0in /  0.0mm 0.0mm
01:40 63.3 °F /  17.4 °C 61.3 °F /  16.3 °C 30in /  1015.1hPa WNW 3.1mph /  5.0km/h 5.4mph /  8.7km/h 93% 0in /  0.0mm 0.0mm
01:42 63.3 °F /  17.4 °C 61.3 °F /  16.3 °C 30in /  1015.1hPa West 2.2mph /  3.5km/h 6mph /  9.7km/h 93% 0in /  0.0mm 0.0mm
01:48 63.3 °F /  17.4 °C 61.3 °F /  16.3 °C 30in /  1015.1hPa West 2.2mph /  3.5km/h 6mph /  9.7km/h 93% 0in /  0.0mm 0.0mm
01:54 63.3 °F /  17.4 °C 61.3 °F /  16.3 °C 30in /  1015.0hPa WNW 1.6mph /  2.6km/h 5.4mph /  8.7km/h 93% 0in /  0.0mm 0.0mm
01:56 63.3 °F /  17.4 °C 61.3 °F /  16.3 °C 30in /  1015.2hPa NW 1.6mph /  2.6km/h 5.4mph /  8.7km/h 93% 0in /  0.0mm 0.0mm
02:04 63.3 °F /  17.4 °C 61.3 °F /  16.3 °C 30in /  1014.9hPa WNW 3.1mph /  5.0km/h 6.9mph /  11.1km/h 93% 0in /  0.0mm 0.0mm
02:08 63.3 °F /  17.4 °C 61.3 °F /  16.3 °C 30in /  1014.9hPa WNW 0.7mph /  1.1km/h 6.9mph /  11.1km/h 93% 0in /  0.0mm 0.0mm
02:12 63.3 °F /  17.4 °C 61.3 °F /  16.3 °C 30in /  1014.8hPa WNW 2.2mph /  3.5km/h 6.9mph /  11.1km/h 93% 0in /  0.0mm 0.0mm
02:20 63.3 °F /  17.4 °C 61.3 °F /  16.3 °C 30in /  1014.6hPa WNW 1.6mph /  2.6km/h 4.5mph /  7.2km/h 93% 0in /  0.0mm 0.0mm
02:24 63.1 °F /  17.3 °C 61.2 °F /  16.2 °C 30in /  1014.7hPa NW 1.6mph /  2.6km/h 4.5mph /  7.2km/h 93% 0in /  0.0mm 0.0mm
02:28 63.1 °F /  17.3 °C 61.3 °F /  16.3 °C 30in /  1014.6hPa NW 1.6mph /  2.6km/h 3.8mph /  6.1km/h 94% 0in /  0.0mm 0.0mm
02:34 63.1 °F /  17.3 °C 61.3 °F /  16.3 °C 30in /  1014.5hPa WNW 0.7mph /  1.1km/h 3.8mph /  6.1km/h 94% 0in /  0.0mm 0.0mm
02:44 63.1 °F /  17.3 °C 61.3 °F /  16.3 °C 30in /  1014.6hPa Calm   4.5mph /  7.2km/h 94% 0in /  0.0mm 0.0mm
02:50 63.1 °F /  17.3 °C 61.3 °F /  16.3 °C 30in /  1014.5hPa WSW 3.1mph /  5.0km/h 4.5mph /  7.2km/h 94% 0in /  0.0mm 0.0mm
02:52 63.1 °F /  17.3 °C 61.3 °F /  16.3 °C 30in /  1014.6hPa NNW 1.6mph /  2.6km/h 3.8mph /  6.1km/h 94% 0in /  0.0mm 0.0mm
02:58 63 °F /  17.2 °C 61.5 °F /  16.4 °C 30in /  1014.5hPa NNW 0.7mph /  1.1km/h 3.8mph /  6.1km/h 95% 0in /  0.0mm 0.0mm
03:04 63 °F /  17.2 °C 61.5 °F /  16.4 °C 30in /  1014.5hPa WNW 2.2mph /  3.5km/h 4.5mph /  7.2km/h 95% 0in /  0.0mm 0.0mm
03:06 63 °F /  17.2 °C 61.5 °F /  16.4 °C 30in /  1014.6hPa NW 2.2mph /  3.5km/h 4.5mph /  7.2km/h 95% 0in /  0.0mm 0.0mm
03:14 62.8 °F /  17.1 °C 61.3 °F /  16.3 °C 30in /  1014.5hPa WSW 1.6mph /  2.6km/h 4.5mph /  7.2km/h 95% 0in /  0.0mm 0.0mm
03:20 62.8 °F /  17.1 °C 61.3 °F /  16.3 °C 30in /  1014.6hPa NNW 1.6mph /  2.6km/h 3.8mph /  6.1km/h 95% 0in /  0.0mm 0.0mm
03:24 62.8 °F /  17.1 °C 61.3 °F /  16.3 °C 30in /  1014.6hPa NW 1.6mph /  2.6km/h 6mph /  9.7km/h 95% 0in /  0.0mm 0.0mm
03:40 62.8 °F /  17.1 °C 61.3 °F /  16.3 °C 30in /  1014.5hPa NW 0.7mph /  1.1km/h 4.5mph /  7.2km/h 95% 0in /  0.0mm 0.0mm
03:44 62.8 °F /  17.1 °C 61.3 °F /  16.3 °C 30in /  1014.6hPa NNW 0.7mph /  1.1km/h 4.5mph /  7.2km/h 95% 0in /  0.0mm 0.0mm
03:54 62.8 °F /  17.1 °C 61.3 °F /  16.3 °C 30in /  1014.6hPa WNW 0.7mph /  1.1km/h 5.4mph /  8.7km/h 95% 0in /  0.0mm 0.0mm
04:10 62.8 °F /  17.1 °C 61.3 °F /  16.3 °C 30in /  1014.6hPa North 0.7mph /  1.1km/h 6.9mph /  11.1km/h 95% 0in /  0.0mm 0.0mm
04:14 62.8 °F /  17.1 °C 61.3 °F /  16.3 °C 30in /  1014.4hPa NW 2.2mph /  3.5km/h 6mph /  9.7km/h 95% 0in /  0.0mm 0.0mm
04:18 62.8 °F /  17.1 °C 61.3 °F /  16.3 °C 30in /  1014.5hPa WNW 2.2mph /  3.5km/h 4.5mph /  7.2km/h 95% 0in /  0.0mm 0.0mm
04:22 62.8 °F /  17.1 °C 61.3 °F /  16.3 °C 30in /  1014.4hPa NW 2.2mph /  3.5km/h 6mph /  9.7km/h 95% 0in /  0.0mm 0.0mm
04:26 62.8 °F /  17.1 °C 61.3 °F /  16.3 °C 30in /  1014.3hPa WSW 2.2mph /  3.5km/h 6mph /  9.7km/h 95% 0in /  0.0mm 0.0mm
04:32 62.8 °F /  17.1 °C 61.3 °F /  16.3 °C 30in /  1014.2hPa WSW 3.1mph /  5.0km/h 6mph /  9.7km/h 95% 0in /  0.0mm 0.0mm
04:44 62.8 °F /  17.1 °C 61.3 °F /  16.3 °C 30in /  1014.4hPa West 1.6mph /  2.6km/h 6.9mph /  11.1km/h 95% 0in /  0.0mm 0.0mm
04:54 62.8 °F /  17.1 °C 61.3 °F /  16.3 °C 30in /  1014.3hPa WSW 1.6mph /  2.6km/h 7.6mph /  12.2km/h 95% 0in /  0.0mm 0.0mm
05:00 62.8 °F /  17.1 °C 61.3 °F /  16.3 °C 30in /  1014.3hPa West 1.6mph /  2.6km/h 7.6mph /  12.2km/h 95% 0in /  0.0mm 0.0mm
05:10 62.8 °F /  17.1 °C 61.3 °F /  16.3 °C 30in /  1014.3hPa WNW 2.2mph /  3.5km/h 8.3mph /  13.4km/h 95% 0in /  0.0mm 0.0mm
05:12 62.8 °F /  17.1 °C 61.3 °F /  16.3 °C 30in /  1014.3hPa WNW 1.6mph /  2.6km/h 8.3mph /  13.4km/h 95% 0in /  0.0mm 0.0mm
05:20 62.8 °F /  17.1 °C 61.3 °F /  16.3 °C 30in /  1014.3hPa NW 2.2mph /  3.5km/h 8.3mph /  13.4km/h 95% 0in /  0.0mm 0.0mm
05:22 63 °F /  17.2 °C 61.5 °F /  16.4 °C 30in /  1014.3hPa NNW 3.1mph /  5.0km/h 6mph /  9.7km/h 95% 0in /  0.0mm 0.0mm
05:40 62.8 °F /  17.1 °C 61.3 °F /  16.3 °C 30in /  1014.4hPa West 2.2mph /  3.5km/h 6mph /  9.7km/h 95% 0in /  0.0mm 0.0mm
05:44 62.8 °F /  17.1 °C 61.3 °F /  16.3 °C 30in /  1014.4hPa WNW 2.2mph /  3.5km/h 6mph /  9.7km/h 95% 0in /  0.0mm 0.0mm
05:50 62.8 °F /  17.1 °C 61.3 °F /  16.3 °C 30in /  1014.3hPa West 1.6mph /  2.6km/h 5.4mph /  8.7km/h 95% 0in /  0.0mm 0.0mm
06:00 62.8 °F /  17.1 °C 61.3 °F /  16.3 °C 30in /  1014.5hPa NW 2.2mph /  3.5km/h 6.9mph /  11.1km/h 95% 0in /  0.0mm 0.0mm
06:04 62.8 °F /  17.1 °C 61.3 °F /  16.3 °C 30in /  1014.5hPa WNW 1.6mph /  2.6km/h 6mph /  9.7km/h 95% 0in /  0.0mm 0.0mm
06:14 62.6 °F /  17.0 °C 61.2 °F /  16.2 °C 30in /  1014.7hPa WNW 2.2mph /  3.5km/h 6.9mph /  11.1km/h 95% 0in /  0.0mm 0.0mm
06:22 62.6 °F /  17.0 °C 61.2 °F /  16.2 °C 30in /  1014.7hPa North 3.1mph /  5.0km/h 7.6mph /  12.2km/h 95% 0in /  0.0mm 0.0mm
06:30 62.6 °F /  17.0 °C 61.2 °F /  16.2 °C 30in /  1014.7hPa West 1.6mph /  2.6km/h 7.6mph /  12.2km/h 95% 0in /  0.0mm 0.0mm
06:40 62.4 °F /  16.9 °C 61.3 °F /  16.3 °C 30in /  1014.8hPa West 1.6mph /  2.6km/h 6mph /  9.7km/h 96% 0in /  0.0mm 0.0mm
06:44 62.4 °F /  16.9 °C 61.3 °F /  16.3 °C 30in /  1014.7hPa NW 3.8mph /  6.1km/h 5.4mph /  8.7km/h 96% 0in /  0.0mm 0.0mm
06:50 62.4 °F /  16.9 °C 61.3 °F /  16.3 °C 30in /  1014.7hPa NW 4.5mph /  7.2km/h 6.9mph /  11.1km/h 96% 0in /  0.0mm 0.0mm
06:52 62.4 °F /  16.9 °C 61.3 °F /  16.3 °C 30in /  1014.9hPa WNW 1.6mph /  2.6km/h 7.6mph /  12.2km/h 96% 0in /  0.0mm 0.0mm
06:56 62.4 °F /  16.9 °C 61.3 °F /  16.3 °C 30in /  1014.8hPa West 2.2mph /  3.5km/h 7.6mph /  12.2km/h 96% 0in /  0.0mm 0.0mm
07:04 62.6 °F /  17.0 °C 61.2 °F /  16.2 °C 30in /  1014.9hPa WSW 2.2mph /  3.5km/h 7.6mph /  12.2km/h 95% 0in /  0.0mm 0.0mm
07:10 62.6 °F /  17.0 °C 61.2 °F /  16.2 °C 30in /  1014.8hPa NNW 2.2mph /  3.5km/h 8.3mph /  13.4km/h 95% 0in /  0.0mm 0.0mm
07:14 62.6 °F /  17.0 °C 61.2 °F /  16.2 °C 30in /  1014.9hPa NNW 2.2mph /  3.5km/h 8.3mph /  13.4km/h 95% 0in /  0.0mm 0.0mm
07:20 62.6 °F /  17.0 °C 61.2 °F /  16.2 °C 30in /  1015.1hPa North 2.2mph /  3.5km/h 7.6mph /  12.2km/h 95% 0in /  0.0mm 0.0mm
07:24 62.6 °F /  17.0 °C 61.2 °F /  16.2 °C 30in /  1015.0hPa North 3.1mph /  5.0km/h 6mph /  9.7km/h 95% 0in /  0.0mm 0.0mm
07:30 62.4 °F /  16.9 °C 61.3 °F /  16.3 °C 30in /  1014.9hPa NNW 2.2mph /  3.5km/h 9.2mph /  14.8km/h 96% 0in /  0.0mm 0.0mm
07:34 62.6 °F /  17.0 °C 61.2 °F /  16.2 °C 30in /  1014.9hPa NW 2.2mph /  3.5km/h 9.2mph /  14.8km/h 95% 0in /  0.0mm 0.0mm
07:40 62.6 °F /  17.0 °C 61.2 °F /  16.2 °C 30in /  1014.9hPa NNE 3.1mph /  5.0km/h 6mph /  9.7km/h 95% 0in /  0.0mm 0.0mm
07:42 62.6 °F /  17.0 °C 61.2 °F /  16.2 °C 30in /  1014.8hPa WNW 3.1mph /  5.0km/h 6mph /  9.7km/h 95% 0in /  0.0mm 0.0mm
07:50 62.6 °F /  17.0 °C 61.2 °F /  16.2 °C 30in /  1014.8hPa NW 2.2mph /  3.5km/h 5.4mph /  8.7km/h 95% 0in /  0.0mm 0.0mm
07:54 62.6 °F /  17.0 °C 61.2 °F /  16.2 °C 30in /  1015.0hPa NNE 2.2mph /  3.5km/h 5.4mph /  8.7km/h 95% 0in /  0.0mm 0.0mm
08:00 62.6 °F /  17.0 °C 61.2 °F /  16.2 °C 30in /  1014.8hPa North 2.2mph /  3.5km/h 5.4mph /  8.7km/h 95% 0in /  0.0mm 0.0mm
08:04 62.6 °F /  17.0 °C 61.2 °F /  16.2 °C 30in /  1015.0hPa NW 1.6mph /  2.6km/h 5.4mph /  8.7km/h 95% 0in /  0.0mm 0.0mm
08:10 62.8 °F /  17.1 °C 61.3 °F /  16.3 °C 30in /  1015.0hPa NW 2.2mph /  3.5km/h 5.4mph /  8.7km/h 95% 0in /  0.0mm 0.0mm
08:14 62.8 °F /  17.1 °C 61.3 °F /  16.3 °C 30in /  1015.0hPa NNW 1.6mph /  2.6km/h 5.4mph /  8.7km/h 95% 0in /  0.0mm 0.0mm
08:16 63 °F /  17.2 °C 61.5 °F /  16.4 °C 30in /  1014.9hPa North 1.6mph /  2.6km/h 5.4mph /  8.7km/h 95% 0in /  0.0mm 0.0mm
08:24 63.1 °F /  17.3 °C 61.7 °F /  16.5 °C 30in /  1015.0hPa West 0.7mph /  1.1km/h 6.9mph /  11.1km/h 95% 0in /  0.0mm 0.0mm
08:30 63.3 °F /  17.4 °C 61.9 °F /  16.6 °C 30in /  1015.1hPa WSW 1.6mph /  2.6km/h 6.9mph /  11.1km/h 95% 0in /  0.0mm 0.0mm
08:34 63.3 °F /  17.4 °C 61.9 °F /  16.6 °C 30in /  1015.3hPa NW 2.2mph /  3.5km/h 6mph /  9.7km/h 95% 0in /  0.0mm 0.0mm
08:40 63.5 °F /  17.5 °C 61.9 °F /  16.6 °C 30in /  1015.3hPa NW 1.6mph /  2.6km/h 6.9mph /  11.1km/h 94% 0in /  0.0mm 0.0mm
08:44 63.5 °F /  17.5 °C 61.9 °F /  16.6 °C 30in /  1015.3hPa NW 2.2mph /  3.5km/h 6.9mph /  11.1km/h 94% 0in /  0.0mm 0.0mm
08:48 63.7 °F /  17.6 °C 61.9 °F /  16.6 °C 30in /  1015.3hPa NW 3.1mph /  5.0km/h 6mph /  9.7km/h 94% 0in /  0.0mm 0.0mm
08:52 63.9 °F /  17.7 °C 61.9 °F /  16.6 °C 30in /  1015.2hPa WNW 2.2mph /  3.5km/h 6.9mph /  11.1km/h 93% 0in /  0.0mm 0.0mm
09:00 64.2 °F /  17.9 °C 62.2 °F /  16.8 °C 30in /  1015.4hPa NW 2.2mph /  3.5km/h 6.9mph /  11.1km/h 93% 0in /  0.0mm 0.0mm
09:02 64.2 °F /  17.9 °C 62.2 °F /  16.8 °C 30in /  1015.3hPa NNW 0.7mph /  1.1km/h 6.9mph /  11.1km/h 93% 0in /  0.0mm 0.0mm
09:08 64.8 °F /  18.2 °C 62.8 °F /  17.1 °C 30in /  1015.1hPa NNW 1.6mph /  2.6km/h 6.9mph /  11.1km/h 93% 0in /  0.0mm 0.0mm
09:12 65.1 °F /  18.4 °C 63.1 °F /  17.3 °C 30in /  1015.1hPa NW 6mph /  9.7km/h 9.2mph /  14.8km/h 93% 0in /  0.0mm 0.0mm
09:20 65.8 °F /  18.8 °C 63.5 °F /  17.5 °C 30in /  1015.1hPa NW 3.8mph /  6.1km/h 9.2mph /  14.8km/h 92% 0in /  0.0mm 0.3mm
09:24 66.2 °F /  19.0 °C 63.1 °F /  17.3 °C 30in /  1015.3hPa NW 2.2mph /  3.5km/h 7.6mph /  12.2km/h 90% 0in /  0.0mm 0.3mm
09:28 66.4 °F /  19.1 °C 63.1 °F /  17.3 °C 30in /  1015.3hPa WNW 1.6mph /  2.6km/h 7.6mph /  12.2km/h 89% 0in /  0.0mm 0.3mm
09:34 66.6 °F /  19.2 °C 63.1 °F /  17.3 °C 30in /  1015.5hPa NNE 3.1mph /  5.0km/h 7.6mph /  12.2km/h 89% 0in /  0.0mm 0.3mm
09:40 66.4 °F /  19.1 °C 62.4 °F /  16.9 °C 30in /  1015.4hPa North 1.6mph /  2.6km/h 8.3mph /  13.4km/h 87% 0in /  0.0mm 0.3mm
09:44 66.6 °F /  19.2 °C 62.6 °F /  17.0 °C 30in /  1015.5hPa North 2.2mph /  3.5km/h 8.3mph /  13.4km/h 87% 0in /  0.0mm 0.3mm
09:50 67.1 °F /  19.5 °C 62.8 °F /  17.1 °C 30in /  1015.4hPa ENE 1.6mph /  2.6km/h 6mph /  9.7km/h 86% 0in /  0.0mm 0.3mm
09:52 67.3 °F /  19.6 °C 63 °F /  17.2 °C 30in /  1015.5hPa ENE 2.2mph /  3.5km/h 6mph /  9.7km/h 86% 0in /  0.0mm 0.3mm
09:56 68.2 °F /  20.1 °C 63.1 °F /  17.3 °C 30in /  1015.4hPa NE 3.1mph /  5.0km/h 5.4mph /  8.7km/h 84% 0in /  0.0mm 0.3mm
10:04 68 °F /  20.0 °C 62.2 °F /  16.8 °C 30in /  1015.4hPa NW 3.1mph /  5.0km/h 6mph /  9.7km/h 82% 0in /  0.0mm 0.3mm
10:10 68 °F /  20.0 °C 62.2 °F /  16.8 °C 30in /  1015.3hPa WNW 4.5mph /  7.2km/h 7.6mph /  12.2km/h 82% 0in /  0.0mm 0.3mm
10:18 69.3 °F /  20.7 °C 63.7 °F /  17.6 °C 30in /  1015.2hPa WNW 3.8mph /  6.1km/h 7.6mph /  12.2km/h 82% 0in /  0.0mm 0.3mm
10:28 70 °F /  21.1 °C 62.4 °F /  16.9 °C 30in /  1015.4hPa NW 3.8mph /  6.1km/h 8.3mph /  13.4km/h 77% 0in /  0.0mm 0.3mm
10:40 69.1 °F /  20.6 °C 62.1 °F /  16.7 °C 30in /  1015.1hPa NNW 2.2mph /  3.5km/h 9.2mph /  14.8km/h 78% 0in /  0.0mm 0.3mm
10:48 70.5 °F /  21.4 °C 62.6 °F /  17.0 °C 30in /  1015.0hPa NNW 3.1mph /  5.0km/h 9.8mph /  15.8km/h 76% 0in /  0.0mm 0.3mm
10:54 70.7 °F /  21.5 °C 62.1 °F /  16.7 °C 30in /  1015.0hPa NNW 3.1mph /  5.0km/h 9.8mph /  15.8km/h 74% 0in /  0.0mm 0.3mm
11:00 72 °F /  22.2 °C 63 °F /  17.2 °C 30in /  1015.1hPa NNW 3.1mph /  5.0km/h 9.2mph /  14.8km/h 73% 0in /  0.0mm 0.3mm
11:10 72.1 °F /  22.3 °C 61.9 °F /  16.6 °C 30in /  1015.3hPa WNW 3.1mph /  5.0km/h 7.6mph /  12.2km/h 70% 0in /  0.0mm 0.3mm
11:14 71.4 °F /  21.9 °C 61.5 °F /  16.4 °C 30in /  1015.3hPa WNW 4.5mph /  7.2km/h 9.8mph /  15.8km/h 71% 0in /  0.0mm 0.3mm
11:20 70.5 °F /  21.4 °C 61.2 °F /  16.2 °C 30in /  1015.2hPa NNW 3.1mph /  5.0km/h 9.8mph /  15.8km/h 72% 0in /  0.0mm 0.3mm
11:24 70.5 °F /  21.4 °C 61.5 °F /  16.4 °C 30in /  1015.1hPa NNE 3.8mph /  6.1km/h 9.8mph /  15.8km/h 73% 0in /  0.0mm 0.3mm
11:28 70.2 °F /  21.2 °C 61.2 °F /  16.2 °C 30in /  1015.2hPa North 3.8mph /  6.1km/h 9.8mph /  15.8km/h 73% 0in /  0.0mm 0.3mm
11:40 72 °F /  22.2 °C 61.7 °F /  16.5 °C 30in /  1015.1hPa NNW 3.1mph /  5.0km/h 7.6mph /  12.2km/h 70% 0in /  0.0mm 0.3mm
11:44 71.2 °F /  21.8 °C 61.3 °F /  16.3 °C 30in /  1015.1hPa NW 4.5mph /  7.2km/h 8.3mph /  13.4km/h 71% 0in /  0.0mm 0.3mm
11:46 70.7 °F /  21.5 °C 61 °F /  16.1 °C 30in /  1015.1hPa NW 2.2mph /  3.5km/h 8.3mph /  13.4km/h 71% 0in /  0.0mm 0.3mm
11:54 73.2 °F /  22.9 °C 63.3 °F /  17.4 °C 30in /  1015.1hPa North 4.5mph /  7.2km/h 8.3mph /  13.4km/h 71% 0in /  0.0mm 0.3mm
12:00 72.3 °F /  22.4 °C 61.2 °F /  16.2 °C 30in /  1015.0hPa North 3.1mph /  5.0km/h 9.8mph /  15.8km/h 68% 0in /  0.0mm 0.3mm
12:10 72.7 °F /  22.6 °C 62.4 °F /  16.9 °C 30in /  1014.7hPa NE 3.1mph /  5.0km/h 12.1mph /  19.5km/h 70% 0in /  0.0mm 0.3mm
12:12 72.9 °F /  22.7 °C 62.1 °F /  16.7 °C 30in /  1014.8hPa NE 3.1mph /  5.0km/h 12.1mph /  19.5km/h 69% 0in /  0.0mm 0.3mm
12:20 73.4 °F /  23.0 °C 61.9 °F /  16.6 °C 30in /  1014.6hPa NE 3.1mph /  5.0km/h 8.3mph /  13.4km/h 67% 0in /  0.0mm 0.3mm
12:22 73.4 °F /  23.0 °C 61.9 °F /  16.6 °C 30in /  1014.7hPa NE 3.8mph /  6.1km/h 8.3mph /  13.4km/h 67% 0in /  0.0mm 0.3mm
12:30 73.6 °F /  23.1 °C 62.4 °F /  16.9 °C 30in /  1014.6hPa North 3.1mph /  5.0km/h 8.3mph /  13.4km/h 68% 0in /  0.0mm 0.3mm
12:34 73.4 °F /  23.0 °C 61 °F /  16.1 °C 30in /  1014.5hPa NE 3.8mph /  6.1km/h 9.2mph /  14.8km/h 65% 0in /  0.0mm 0.3mm
12:50 73.9 °F /  23.3 °C 61.5 °F /  16.4 °C 30in /  1014.5hPa North 3.8mph /  6.1km/h 9.8mph /  15.8km/h 65% 0in /  0.0mm 0.3mm
12:52 73.6 °F /  23.1 °C 61.2 °F /  16.2 °C 30in /  1014.4hPa NNE 3.1mph /  5.0km/h 9.8mph /  15.8km/h 65% 0in /  0.0mm 0.3mm
13:00 72.9 °F /  22.7 °C 61 °F /  16.1 °C 30in /  1014.3hPa NNE 2.2mph /  3.5km/h 8.3mph /  13.4km/h 66% 0in /  0.0mm 0.3mm
13:08 72.5 °F /  22.5 °C 60.4 °F /  15.8 °C 30in /  1014.3hPa NNW 3.1mph /  5.0km/h 7.6mph /  12.2km/h 66% 0in /  0.0mm 0.3mm
13:14 72.5 °F /  22.5 °C 61 °F /  16.1 °C 30in /  1014.2hPa NE 3.1mph /  5.0km/h 8.3mph /  13.4km/h 67% 0in /  0.0mm 0.3mm
13:20 73.9 °F /  23.3 °C 62.2 °F /  16.8 °C 29.9in /  1014.1hPa ENE 3.1mph /  5.0km/h 8.3mph /  13.4km/h 67% 0in /  0.0mm 0.3mm
13:24 74.7 °F /  23.7 °C 61.7 °F /  16.5 °C 30in /  1014.4hPa NNW 3.8mph /  6.1km/h 9.2mph /  14.8km/h 64% 0in /  0.0mm 0.3mm
13:28 73.4 °F /  23.0 °C 60.4 °F /  15.8 °C 30in /  1014.3hPa ENE 3.8mph /  6.1km/h 9.2mph /  14.8km/h 64% 0in /  0.0mm 0.3mm
13:40 72.9 °F /  22.7 °C 61.3 °F /  16.3 °C 29.9in /  1014.0hPa NE 3.1mph /  5.0km/h 9.2mph /  14.8km/h 67% 0in /  0.0mm 0.3mm
13:42 73 °F /  22.8 °C 61.5 °F /  16.4 °C 30in /  1014.2hPa NE 3.8mph /  6.1km/h 9.2mph /  14.8km/h 67% 0in /  0.0mm 0.3mm
13:54 75.4 °F /  24.1 °C 62.4 °F /  16.9 °C 29.9in /  1014.1hPa NNW 3.1mph /  5.0km/h 8.3mph /  13.4km/h 64% 0in /  0.0mm 0.3mm
13:58 75.2 °F /  24.0 °C 61.3 °F /  16.3 °C 29.9in /  1014.0hPa NE 3.8mph /  6.1km/h 8.3mph /  13.4km/h 62% 0in /  0.0mm 0.3mm
14:08 73.9 °F /  23.3 °C 61 °F /  16.1 °C 30in /  1014.2hPa NE 2.2mph /  3.5km/h 7.6mph /  12.2km/h 64% 0in /  0.0mm 0.3mm
14:20 72.9 °F /  22.7 °C 60.4 °F /  15.8 °C 29.9in /  1013.8hPa NNE 3.1mph /  5.0km/h 7.6mph /  12.2km/h 65% 0in /  0.0mm 0.3mm
14:24 73 °F /  22.8 °C 61 °F /  16.1 °C 29.9in /  1013.8hPa NNE 3.1mph /  5.0km/h 7.6mph /  12.2km/h 66% 0in /  0.0mm 0.3mm
14:28 73 °F /  22.8 °C 60.6 °F /  15.9 °C 29.9in /  1013.9hPa NNE 6mph /  9.7km/h 8.3mph /  13.4km/h 65% 0in /  0.0mm 0.3mm
14:32 72.5 °F /  22.5 °C 60.1 °F /  15.6 °C 29.9in /  1014.0hPa NNE 2.2mph /  3.5km/h 8.3mph /  13.4km/h 65% 0in /  0.0mm 0.3mm
14:40 72.9 °F /  22.7 °C 60.4 °F /  15.8 °C 29.9in /  1013.7hPa NE 3.1mph /  5.0km/h 7.6mph /  12.2km/h 65% 0in /  0.0mm 0.3mm
14:44 72.5 °F /  22.5 °C 60.1 °F /  15.6 °C 29.9in /  1013.7hPa NE 2.2mph /  3.5km/h 7.6mph /  12.2km/h 65% 0in /  0.0mm 0.3mm
14:50 72 °F /  22.2 °C 60.4 °F /  15.8 °C 29.9in /  1013.9hPa North 3.8mph /  6.1km/h 8.3mph /  13.4km/h 67% 0in /  0.0mm 0.3mm
14:54 71.8 °F /  22.1 °C 60.3 °F /  15.7 °C 29.9in /  1013.7hPa NE 5.4mph /  8.7km/h 9.2mph /  14.8km/h 67% 0in /  0.0mm 0.3mm
15:00 72 °F /  22.2 °C 60.1 °F /  15.6 °C 29.9in /  1013.8hPa NE 3.8mph /  6.1km/h 9.2mph /  14.8km/h 66% 0in /  0.0mm 0.3mm
15:04 71.6 °F /  22.0 °C 60.1 °F /  15.6 °C 29.9in /  1013.8hPa NNE 3.8mph /  6.1km/h 9.2mph /  14.8km/h 67% 0in /  0.0mm 0.3mm
15:08 71.2 °F /  21.8 °C 60.6 °F /  15.9 °C 29.9in /  1013.6hPa North 3.8mph /  6.1km/h 7.6mph /  12.2km/h 69% 0in /  0.0mm 0.3mm
15:20 72 °F /  22.2 °C 61.3 °F /  16.3 °C 29.9in /  1013.1hPa North 3.1mph /  5.0km/h 6mph /  9.7km/h 69% 0in /  0.0mm 0.3mm
15:24 73.4 °F /  23.0 °C 61.9 °F /  16.6 °C 29.9in /  1013.1hPa North 3.1mph /  5.0km/h 9.2mph /  14.8km/h 67% 0in /  0.0mm 0.3mm
15:30 73.4 °F /  23.0 °C 61 °F /  16.1 °C 29.9in /  1012.9hPa North 3.8mph /  6.1km/h 9.2mph /  14.8km/h 65% 0in /  0.0mm 0.3mm
15:34 73.4 °F /  23.0 °C 61.3 °F /  16.3 °C 29.9in /  1013.0hPa NNW 3.8mph /  6.1km/h 8.3mph /  13.4km/h 66% 0in /  0.0mm 0.3mm
15:40 75.2 °F /  24.0 °C 62.2 °F /  16.8 °C 29.9in /  1012.9hPa North 4.5mph /  7.2km/h 8.3mph /  13.4km/h 64% 0in /  0.0mm 0.3mm
15:42 75.6 °F /  24.2 °C 61.7 °F /  16.5 °C 29.9in /  1013.0hPa NNE 3.8mph /  6.1km/h 7.6mph /  12.2km/h 62% 0in /  0.0mm 0.3mm
15:54 73.9 °F /  23.3 °C 61 °F /  16.1 °C 29.9in /  1012.6hPa NE 3.8mph /  6.1km/h 9.8mph /  15.8km/h 64% 0in /  0.0mm 0.3mm
16:00 75.4 °F /  24.1 °C 62.4 °F /  16.9 °C 29.9in /  1012.7hPa North 3.1mph /  5.0km/h 8.3mph /  13.4km/h 64% 0in /  0.0mm 0.3mm
16:08 74.1 °F /  23.4 °C 60.8 °F /  16.0 °C 29.9in /  1012.9hPa North 2.2mph /  3.5km/h 13mph /  20.9km/h 63% 0in /  0.0mm 0.3mm
16:14 72.1 °F /  22.3 °C 60.3 °F /  15.7 °C 29.9in /  1012.7hPa North 2.2mph /  3.5km/h 13mph /  20.9km/h 66% 0in /  0.0mm 0.3mm
16:34 72 °F /  22.2 °C 61.7 °F /  16.5 °C 29.9in /  1012.5hPa NNW 3.1mph /  5.0km/h 7.6mph /  12.2km/h 70% 0in /  0.0mm 0.3mm
16:38 72.1 °F /  22.3 °C 61 °F /  16.1 °C 29.9in /  1012.5hPa NNW 3.1mph /  5.0km/h 7.6mph /  12.2km/h 68% 0in /  0.0mm 0.3mm
16:42 72.3 °F /  22.4 °C 61.2 °F /  16.2 °C 29.9in /  1012.5hPa NNW 2.2mph /  3.5km/h 7.6mph /  12.2km/h 68% 0in /  0.0mm 0.3mm
16:48 74.1 °F /  23.4 °C 62.1 °F /  16.7 °C 29.9in /  1012.2hPa NNE 2.2mph /  3.5km/h 6.9mph /  11.1km/h 66% 0in /  0.0mm 0.3mm
16:54 74.7 °F /  23.7 °C 61.3 °F /  16.3 °C 29.9in /  1012.2hPa North 3.8mph /  6.1km/h 7.6mph /  12.2km/h 63% 0in /  0.0mm 0.3mm
17:04 74.1 °F /  23.4 °C 60.8 °F /  16.0 °C 29.9in /  1012.1hPa NNE 3.1mph /  5.0km/h 9.2mph /  14.8km/h 63% 0in /  0.0mm 0.3mm
17:08 74.5 °F /  23.6 °C 61.2 °F /  16.2 °C 29.9in /  1011.9hPa NNE 2.2mph /  3.5km/h 9.2mph /  14.8km/h 63% 0in /  0.0mm 0.3mm
17:12 74.5 °F /  23.6 °C 61.2 °F /  16.2 °C 29.9in /  1012.0hPa NNE 3.1mph /  5.0km/h 9.2mph /  14.8km/h 63% 0in /  0.0mm 0.3mm
17:18 73.6 °F /  23.1 °C 60.3 °F /  15.7 °C 29.9in /  1012.2hPa NE 3.1mph /  5.0km/h 6mph /  9.7km/h 63% 0in /  0.0mm 0.3mm
17:24 71.4 °F /  21.9 °C 59.5 °F /  15.3 °C 29.9in /  1012.1hPa NNE 4.5mph /  7.2km/h 7.6mph /  12.2km/h 66% 0in /  0.0mm 0.3mm
17:30 70.5 °F /  21.4 °C 60.3 °F /  15.7 °C 29.9in /  1011.9hPa NNE 3.1mph /  5.0km/h 7.6mph /  12.2km/h 70% 0in /  0.0mm 0.3mm
17:44 70.7 °F /  21.5 °C 61 °F /  16.1 °C 29.9in /  1012.2hPa NNE 3.8mph /  6.1km/h 6.9mph /  11.1km/h 71% 0in /  0.0mm 0.3mm
17:50 70.3 °F /  21.3 °C 60.1 °F /  15.6 °C 29.9in /  1011.9hPa NE 3.1mph /  5.0km/h 6mph /  9.7km/h 70% 0in /  0.0mm 0.3mm
17:54 69.6 °F /  20.9 °C 60.3 °F /  15.7 °C 29.9in /  1011.9hPa ENE 1.6mph /  2.6km/h 8.3mph /  13.4km/h 72% 0in /  0.0mm 0.3mm
18:00 69.4 °F /  20.8 °C 60.4 °F /  15.8 °C 29.9in /  1011.8hPa East 2.2mph /  3.5km/h 8.3mph /  13.4km/h 73% 0in /  0.0mm 0.3mm
18:04 69.1 °F /  20.6 °C 60.1 °F /  15.6 °C 29.9in /  1011.9hPa NE 3.1mph /  5.0km/h 6.9mph /  11.1km/h 73% 0in /  0.0mm 0.3mm
18:08 68.7 °F /  20.4 °C 60.1 °F /  15.6 °C 29.9in /  1011.9hPa NE 3.8mph /  6.1km/h 6mph /  9.7km/h 74% 0in /  0.0mm 0.3mm
18:14 68.2 °F /  20.1 °C 59.5 °F /  15.3 °C 29.9in /  1011.9hPa ENE 2.2mph /  3.5km/h 6mph /  9.7km/h 74% 0in /  0.0mm 0.3mm
18:32 66.9 °F /  19.4 °C 60.3 °F /  15.7 °C 29.9in /  1011.7hPa NE 2.2mph /  3.5km/h 7.6mph /  12.2km/h 79% 0in /  0.0mm 0.3mm
18:40 66.6 °F /  19.2 °C 60.6 °F /  15.9 °C 29.9in /  1011.7hPa NE 2.2mph /  3.5km/h 8.3mph /  13.4km/h 81% 0in /  0.0mm 0.3mm
18:44 66.6 °F /  19.2 °C 60.6 °F /  15.9 °C 29.9in /  1011.6hPa NE 2.2mph /  3.5km/h 8.3mph /  13.4km/h 81% 0in /  0.0mm 0.3mm
18:50 66.2 °F /  19.0 °C 60.3 °F /  15.7 °C 29.9in /  1011.8hPa NE 1.6mph /  2.6km/h 6.9mph /  11.1km/h 81% 0in /  0.0mm 0.3mm
18:54 65.8 °F /  18.8 °C 60.6 °F /  15.9 °C 29.9in /  1012.1hPa ENE 1.6mph /  2.6km/h 7.6mph /  12.2km/h 83% 0in /  0.0mm 0.3mm
19:00 65.7 °F /  18.7 °C 60.4 °F /  15.8 °C 29.9in /  1011.8hPa ENE 2.2mph /  3.5km/h 8.3mph /  13.4km/h 83% 0in /  0.0mm 0.3mm
19:02 65.5 °F /  18.6 °C 60.3 °F /  15.7 °C 29.9in /  1012.0hPa ENE 3.1mph /  5.0km/h 8.3mph /  13.4km/h 83% 0in /  0.0mm 0.3mm
19:10 65.1 °F /  18.4 °C 60.3 °F /  15.7 °C 29.9in /  1012.1hPa ENE 2.2mph /  3.5km/h 6.9mph /  11.1km/h 84% 0in /  0.0mm 0.3mm
19:14 65.1 °F /  18.4 °C 60.3 °F /  15.7 °C 29.9in /  1012.0hPa NE 1.6mph /  2.6km/h 6.9mph /  11.1km/h 84% 0in /  0.0mm 0.3mm
19:20 65.3 °F /  18.5 °C 60.4 °F /  15.8 °C 29.9in /  1012.2hPa NNE 3.8mph /  6.1km/h 6.9mph /  11.1km/h 84% 0in /  0.0mm 0.3mm
19:24 65.5 °F /  18.6 °C 60.4 °F /  15.8 °C 29.9in /  1012.1hPa ENE 2.2mph /  3.5km/h 6mph /  9.7km/h 84% 0in /  0.0mm 0.3mm
19:30 65.3 °F /  18.5 °C 60.4 °F /  15.8 °C 29.9in /  1012.1hPa NE 2.2mph /  3.5km/h 6mph /  9.7km/h 84% 0in /  0.0mm 0.3mm
19:40 64.9 °F /  18.3 °C 59.7 °F /  15.4 °C 29.9in /  1012.4hPa ENE 1.6mph /  2.6km/h 7.6mph /  12.2km/h 83% 0in /  0.0mm 0.3mm
19:44 64.9 °F /  18.3 °C 60.1 °F /  15.6 °C 29.9in /  1012.2hPa NE 3.1mph /  5.0km/h 7.6mph /  12.2km/h 84% 0in /  0.0mm 0.3mm
19:50 64.6 °F /  18.1 °C 59.7 °F /  15.4 °C 29.9in /  1012.3hPa NNE 3.1mph /  5.0km/h 5.4mph /  8.7km/h 84% 0in /  0.0mm 0.3mm
19:52 64.6 °F /  18.1 °C 59.7 °F /  15.4 °C 29.9in /  1012.4hPa NNE 3.1mph /  5.0km/h 5.4mph /  8.7km/h 84% 0in /  0.0mm 0.3mm
20:00 64.6 °F /  18.1 °C 60.1 °F /  15.6 °C 29.9in /  1012.3hPa NE 3.1mph /  5.0km/h 6mph /  9.7km/h 85% 0in /  0.0mm 0.3mm
20:04 64.6 °F /  18.1 °C 60.1 °F /  15.6 °C 29.9in /  1012.2hPa ENE 3.8mph /  6.1km/h 6.9mph /  11.1km/h 85% 0in /  0.0mm 0.3mm
20:10 64.6 °F /  18.1 °C 60.3 °F /  15.7 °C 29.9in /  1012.3hPa ENE 3.8mph /  6.1km/h 6.9mph /  11.1km/h 86% 0in /  0.0mm 0.3mm
20:14 64.6 °F /  18.1 °C 60.3 °F /  15.7 °C 29.9in /  1012.3hPa NE 3.8mph /  6.1km/h 6.9mph /  11.1km/h 86% 0in /  0.0mm 0.3mm
20:20 64.4 °F /  18.0 °C 60.1 °F /  15.6 °C 29.9in /  1012.2hPa ENE 1.6mph /  2.6km/h 6mph /  9.7km/h 86% 0in /  0.0mm 0.3mm
20:24 64.4 °F /  18.0 °C 60.4 °F /  15.8 °C 29.9in /  1012.3hPa NE 2.2mph /  3.5km/h 9.2mph /  14.8km/h 87% 0in /  0.0mm 0.3mm
20:30 64.4 °F /  18.0 °C 60.4 °F /  15.8 °C 29.9in /  1012.2hPa NE 2.2mph /  3.5km/h 9.2mph /  14.8km/h 87% 0in /  0.0mm 0.3mm
20:32 64.4 °F /  18.0 °C 60.4 °F /  15.8 °C 29.9in /  1012.2hPa ENE 3.1mph /  5.0km/h 7.6mph /  12.2km/h 87% 0in /  0.0mm 0.3mm
20:38 64.4 °F /  18.0 °C 60.4 °F /  15.8 °C 29.9in /  1012.2hPa NNE 1.6mph /  2.6km/h 7.6mph /  12.2km/h 87% 0in /  0.0mm 0.3mm
20:42 64.4 °F /  18.0 °C 60.4 °F /  15.8 °C 29.9in /  1012.3hPa NE 2.2mph /  3.5km/h 7.6mph /  12.2km/h 87% 0in /  0.0mm 0.3mm
20:50 64.2 °F /  17.9 °C 60.3 °F /  15.7 °C 29.9in /  1012.5hPa NE 3.1mph /  5.0km/h 7.6mph /  12.2km/h 87% 0in /  0.0mm 0.3mm
20:54 64.2 °F /  17.9 °C 60.3 °F /  15.7 °C 29.9in /  1012.3hPa NE 1.6mph /  2.6km/h 11.4mph /  18.3km/h 87% 0in /  0.0mm 0.3mm
21:00 64.2 °F /  17.9 °C 60.6 °F /  15.9 °C 29.9in /  1012.6hPa NNE 3.1mph /  5.0km/h 11.4mph /  18.3km/h 88% 0in /  0.0mm 0.3mm
21:10 64.4 °F /  18.0 °C 60.8 °F /  16.0 °C 29.9in /  1012.7hPa NNE 3.1mph /  5.0km/h 9.2mph /  14.8km/h 88% 0in /  0.0mm 0.3mm
21:20 64.2 °F /  17.9 °C 60.6 °F /  15.9 °C 29.9in /  1012.7hPa NE 1.6mph /  2.6km/h 7.6mph /  12.2km/h 88% 0in /  0.0mm 0.3mm
21:30 64.2 °F /  17.9 °C 60.6 °F /  15.9 °C 29.9in /  1012.7hPa NE 3.8mph /  6.1km/h 8.3mph /  13.4km/h 88% 0in /  0.0mm 0.3mm
21:34 64.2 °F /  17.9 °C 60.3 °F /  15.7 °C 29.9in /  1012.6hPa NNE 2.2mph /  3.5km/h 7.6mph /  12.2km/h 87% 0in /  0.0mm 0.3mm
21:44 64.4 °F /  18.0 °C 60.4 °F /  15.8 °C 29.9in /  1012.9hPa North 3.1mph /  5.0km/h 9.2mph /  14.8km/h 87% 0in /  0.0mm 0.3mm
21:50 64.4 °F /  18.0 °C 60.4 °F /  15.8 °C 29.9in /  1012.9hPa NNE 5.4mph /  8.7km/h 8.3mph /  13.4km/h 87% 0in /  0.0mm 0.3mm
21:52 64.4 °F /  18.0 °C 60.4 °F /  15.8 °C 29.9in /  1013.0hPa NNE 3.1mph /  5.0km/h 8.3mph /  13.4km/h 87% 0in /  0.0mm 0.3mm
21:56 64.4 °F /  18.0 °C 60.4 °F /  15.8 °C 29.9in /  1013.0hPa NNE 6mph /  9.7km/h 8.3mph /  13.4km/h 87% 0in /  0.0mm 0.3mm
22:02 64.4 °F /  18.0 °C 60.4 °F /  15.8 °C 29.9in /  1013.1hPa NNE 3.8mph /  6.1km/h 7.6mph /  12.2km/h 87% 0in /  0.0mm 0.3mm
22:10 64.4 °F /  18.0 °C 60.4 °F /  15.8 °C 29.9in /  1013.0hPa NNE 5.4mph /  8.7km/h 9.8mph /  15.8km/h 87% 0in /  0.0mm 0.3mm
22:14 64.4 °F /  18.0 °C 60.4 °F /  15.8 °C 29.9in /  1013.0hPa NE 3.1mph /  5.0km/h 9.8mph /  15.8km/h 87% 0in /  0.0mm 0.3mm
22:20 64.4 °F /  18.0 °C 60.4 °F /  15.8 °C 29.9in /  1013.0hPa NE 3.1mph /  5.0km/h 9.8mph /  15.8km/h 87% 0in /  0.0mm 0.3mm
22:24 64.4 °F /  18.0 °C 60.4 °F /  15.8 °C 29.9in /  1013.0hPa NNE 2.2mph /  3.5km/h 6mph /  9.7km/h 87% 0in /  0.0mm 0.3mm
22:28 64.4 °F /  18.0 °C 60.4 °F /  15.8 °C 29.9in /  1013.1hPa NNE 4.5mph /  7.2km/h 8.3mph /  13.4km/h 87% 0in /  0.0mm 0.3mm
22:32 64.4 °F /  18.0 °C 60.4 °F /  15.8 °C 29.9in /  1013.0hPa North 2.2mph /  3.5km/h 8.3mph /  13.4km/h 87% 0in /  0.0mm 0.3mm
22:40 64.4 °F /  18.0 °C 60.4 °F /  15.8 °C 29.9in /  1013.1hPa North 3.1mph /  5.0km/h 9.2mph /  14.8km/h 87% 0in /  0.0mm 0.3mm
22:44 64.4 °F /  18.0 °C 60.4 °F /  15.8 °C 29.9in /  1013.1hPa NNE 2.2mph /  3.5km/h 9.2mph /  14.8km/h 87% 0in /  0.0mm 0.3mm
22:50 64.4 °F /  18.0 °C 60.4 °F /  15.8 °C 29.9in /  1013.2hPa East 5.4mph /  8.7km/h 9.8mph /  15.8km/h 87% 0in /  0.0mm 0.3mm
23:02 64.4 °F /  18.0 °C 60.8 °F /  16.0 °C 29.9in /  1013.2hPa North 5.4mph /  8.7km/h 8.3mph /  13.4km/h 88% 0in /  0.0mm 0.3mm
23:10 64.4 °F /  18.0 °C 60.8 °F /  16.0 °C 29.9in /  1013.0hPa NNE 3.1mph /  5.0km/h 9.2mph /  14.8km/h 88% 0in /  0.0mm 0.3mm
23:20 64.4 °F /  18.0 °C 61.2 °F /  16.2 °C 29.9in /  1013.0hPa NE 2.2mph /  3.5km/h 9.2mph /  14.8km/h 89% 0in /  0.0mm 0.3mm
23:22 64.4 °F /  18.0 °C 61.2 °F /  16.2 °C 29.9in /  1013.0hPa NNE 2.2mph /  3.5km/h 7.6mph /  12.2km/h 89% 0in /  0.0mm 0.3mm
23:30 64.2 °F /  17.9 °C 61 °F /  16.1 °C 29.9in /  1012.9hPa NE 2.2mph /  3.5km/h 8.3mph /  13.4km/h 89% 0in /  0.0mm 0.3mm
23:34 64 °F /  17.8 °C 60.8 °F /  16.0 °C 29.9in /  1013.1hPa NE 2.2mph /  3.5km/h 9.8mph /  15.8km/h 89% 0in /  0.0mm 0.3mm
23:40 63.9 °F /  17.7 °C 60.6 °F /  15.9 °C 29.9in /  1012.9hPa NE 3.1mph /  5.0km/h 9.8mph /  15.8km/h 89% 0in /  0.0mm 0.3mm
23:44 63.9 °F /  17.7 °C 60.6 °F /  15.9 °C 29.9in /  1012.8hPa NE 2.2mph /  3.5km/h 7.6mph /  12.2km/h 89% 0in /  0.0mm 0.3mm
23:52 63.9 °F /  17.7 °C 61 °F /  16.1 °C 29.9in /  1013.0hPa ENE 2.2mph /  3.5km/h 8.3mph /  13.4km/h 90% 0in /  0.0mm 0.3mm
23:58 63.9 °F /  17.7 °C 61 °F /  16.1 °C 29.9in /  1013.0hPa ENE 3.1mph /  5.0km/h 8.3mph /  13.4km/h 90% 0in /  0.0mm 0.3mm
Opotiki Town Weather
Compliments of Weather Underground - 2 mb

NZ Local Weather Forum      Cumulus Top Weather Sites      New Zealand Top40 Weather Station Sites      Flag Counter